createdAt,value
2024-04-25T00:00:01.213Z,5.20
2024-04-25T00:02:29.258Z,5.30
2024-04-25T00:04:58.993Z,5.20
2024-04-25T00:07:27.376Z,5.20
2024-04-25T00:09:54.395Z,5.30
2024-04-25T00:12:22.536Z,5.20
2024-04-25T00:14:49.585Z,5.30
2024-04-25T00:17:19.024Z,5.20
2024-04-25T00:19:48.025Z,5.20
2024-04-25T00:22:15.108Z,5.20
2024-04-25T00:24:42.058Z,5.20
2024-04-25T00:27:12.130Z,5.30
2024-04-25T00:29:39.518Z,5.20
2024-04-25T00:32:08.316Z,5.30
2024-04-25T00:34:35.405Z,5.20
2024-04-25T00:37:03.342Z,5.20
2024-04-25T00:39:30.597Z,5.20
2024-04-25T00:41:57.821Z,5.20
2024-04-25T00:44:24.861Z,5.10
2024-04-25T00:46:51.869Z,5.20
2024-04-25T00:49:19.388Z,5.10
2024-04-25T00:51:48.152Z,5.20
2024-04-25T00:54:15.950Z,5.10
2024-04-25T00:56:43.014Z,5.20
2024-04-25T00:59:10.989Z,5.10
2024-04-25T01:01:43.862Z,5.00
2024-04-25T01:04:11.405Z,5.00
2024-04-25T01:06:39.794Z,5.00
2024-04-25T01:09:07.055Z,4.90
2024-04-25T01:11:35.847Z,4.90
2024-04-25T01:14:03.020Z,4.90
2024-04-25T01:16:31.473Z,5.00
2024-04-25T01:18:58.532Z,4.90
2024-04-25T01:21:26.431Z,4.90
2024-04-25T01:23:53.390Z,4.90
2024-04-25T01:26:22.427Z,4.90
2024-04-25T01:28:50.105Z,4.90
2024-04-25T01:31:19.918Z,5.00
2024-04-25T01:33:47.023Z,5.00
2024-04-25T01:36:18.696Z,5.00
2024-04-25T01:38:48.550Z,5.10
2024-04-25T01:41:15.528Z,5.20
2024-04-25T01:43:43.260Z,5.10
2024-04-25T01:46:10.299Z,5.10
2024-04-25T01:48:37.428Z,5.10
2024-04-25T01:51:05.109Z,5.20
2024-04-25T01:53:32.367Z,5.10
2024-04-25T01:56:00.596Z,5.10
2024-04-25T01:58:27.767Z,5.10
2024-04-25T02:00:56.042Z,5.20
2024-04-25T02:03:23.105Z,5.20
2024-04-25T02:05:52.597Z,5.20
2024-04-25T02:08:19.628Z,5.20
2024-04-25T02:10:49.025Z,5.10
2024-04-25T02:13:17.336Z,5.00
2024-04-25T02:15:44.531Z,5.00
2024-04-25T02:18:11.730Z,4.90
2024-04-25T02:20:58.237Z,5.00
2024-04-25T02:23:43.662Z,5.00
2024-04-25T02:26:11.346Z,5.00
2024-04-25T02:28:40.011Z,4.90
2024-04-25T02:31:07.481Z,4.90
2024-04-25T02:33:35.653Z,4.90
2024-04-25T02:36:02.595Z,5.00
2024-04-25T02:38:31.771Z,5.00
2024-04-25T02:40:58.777Z,4.90
2024-04-25T02:43:27.148Z,4.90
2024-04-25T02:45:54.229Z,4.90
2024-04-25T02:48:21.264Z,4.90
2024-04-25T02:50:48.403Z,4.90
2024-04-25T02:53:15.900Z,4.90
2024-04-25T02:55:44.397Z,4.90
2024-04-25T02:58:11.391Z,4.90
2024-04-25T03:00:39.526Z,4.90
2024-04-25T03:03:06.929Z,4.90
2024-04-25T03:05:34.123Z,4.90
2024-04-25T03:08:01.113Z,4.90
2024-04-25T03:10:28.312Z,4.90
2024-04-25T03:12:56.514Z,4.80
2024-04-25T03:15:24.570Z,5.00
2024-04-25T03:17:54.170Z,4.80
2024-04-25T03:20:21.482Z,4.70
2024-04-25T03:22:48.765Z,4.80
2024-04-25T03:25:16.398Z,4.70
2024-04-25T03:27:43.756Z,4.60
2024-04-25T03:30:11.074Z,4.60
2024-04-25T03:32:39.194Z,4.60
2024-04-25T03:35:06.793Z,4.40
2024-04-25T03:37:35.580Z,4.50
2024-04-25T03:40:02.740Z,4.50
2024-04-25T03:42:29.744Z,4.50
2024-04-25T03:44:56.770Z,4.40
2024-04-25T03:47:23.799Z,4.40
2024-04-25T03:49:50.801Z,4.30
2024-04-25T03:52:18.907Z,4.40
2024-04-25T03:54:48.032Z,4.40
2024-04-25T03:57:14.995Z,4.50
2024-04-25T03:59:41.997Z,4.50
2024-04-25T04:02:09.102Z,4.50
2024-04-25T04:04:36.501Z,4.50
2024-04-25T04:07:04.713Z,4.60
2024-04-25T04:09:31.769Z,4.60
2024-04-25T04:12:05.074Z,4.60
2024-04-25T04:14:32.684Z,4.60
2024-04-25T04:16:59.702Z,4.70
2024-04-25T04:19:28.676Z,4.70
2024-04-25T04:21:55.753Z,4.80
2024-04-25T04:24:23.661Z,4.80
2024-04-25T04:26:50.665Z,4.90
2024-04-25T04:29:21.718Z,5.10
2024-04-25T04:31:48.672Z,5.50
2024-04-25T04:34:15.741Z,5.70
2024-04-25T04:36:42.747Z,6.10
2024-04-25T04:39:12.277Z,6.20
2024-04-25T04:41:40.009Z,6.50
2024-04-25T04:44:08.428Z,6.60
2024-04-25T04:46:35.858Z,6.80
2024-04-25T04:49:03.243Z,7.10
2024-04-25T04:51:30.337Z,7.30
2024-04-25T04:53:58.004Z,7.60
2024-04-25T04:56:25.967Z,7.80
2024-04-25T04:58:52.930Z,7.90
2024-04-25T05:01:19.880Z,8.20
2024-04-25T05:03:47.000Z,8.60
2024-04-25T05:06:14.083Z,8.90
2024-04-25T05:08:41.155Z,9.30
2024-04-25T05:11:10.034Z,9.40
2024-04-25T05:13:38.406Z,9.80
2024-04-25T05:16:05.529Z,10.00
2024-04-25T05:18:33.076Z,10.20
2024-04-25T05:21:00.603Z,10.80
2024-04-25T05:23:27.615Z,11.20
2024-04-25T05:25:55.615Z,11.40
2024-04-25T05:28:24.184Z,11.70
2024-04-25T05:30:51.395Z,11.90
2024-04-25T05:33:18.460Z,12.10
2024-04-25T05:35:46.152Z,12.00
2024-04-25T05:38:13.407Z,11.70
2024-04-25T05:40:40.439Z,11.50
2024-04-25T05:43:11.497Z,11.10
2024-04-25T05:45:40.223Z,11.00
2024-04-25T05:48:07.976Z,10.60
2024-04-25T05:50:35.305Z,10.50
2024-04-25T05:53:05.191Z,10.30
2024-04-25T05:55:33.401Z,10.10
2024-04-25T05:58:01.451Z,10.00
2024-04-25T06:00:28.409Z,9.90
2024-04-25T06:02:55.627Z,9.80
2024-04-25T06:05:22.961Z,9.80
2024-04-25T06:07:50.515Z,9.80
2024-04-25T06:10:23.080Z,10.00
2024-04-25T06:12:50.378Z,9.90
2024-04-25T06:15:17.497Z,9.90
2024-04-25T06:17:46.811Z,9.90
2024-04-25T06:20:13.934Z,10.10
2024-04-25T06:22:41.545Z,10.30
2024-04-25T06:25:08.652Z,10.80
2024-04-25T06:27:38.487Z,10.80
2024-04-25T06:30:07.549Z,11.00
2024-04-25T06:32:37.737Z,11.20
2024-04-25T06:35:06.619Z,11.50
2024-04-25T06:37:36.422Z,11.60
2024-04-25T06:40:04.378Z,11.50
2024-04-25T06:42:31.386Z,11.20
2024-04-25T06:44:58.362Z,11.30
2024-04-25T06:47:25.959Z,11.30
2024-04-25T06:49:56.370Z,11.40
2024-04-25T06:52:23.300Z,11.50
2024-04-25T06:54:52.616Z,11.70
2024-04-25T06:57:20.651Z,11.90
2024-04-25T06:59:50.209Z,12.00
2024-04-25T07:02:20.674Z,11.90
2024-04-25T07:04:50.347Z,11.80
2024-04-25T07:07:18.444Z,11.70
2024-04-25T07:09:46.817Z,11.80
2024-04-25T07:12:13.774Z,11.70
2024-04-25T07:14:41.057Z,11.60
2024-04-25T07:17:08.512Z,11.60
2024-04-25T07:19:35.997Z,11.60
2024-04-25T07:22:03.062Z,11.70
2024-04-25T07:24:33.471Z,12.00
2024-04-25T07:27:00.559Z,12.20
2024-04-25T07:29:31.677Z,12.40
2024-04-25T07:32:02.558Z,12.50
2024-04-25T07:34:30.165Z,12.40
2024-04-25T07:36:57.186Z,12.40
2024-04-25T07:39:25.324Z,12.60
2024-04-25T07:41:53.918Z,12.70
2024-04-25T07:44:21.138Z,12.90
2024-04-25T07:46:48.890Z,13.20
2024-04-25T07:49:19.028Z,13.40
2024-04-25T07:51:46.727Z,13.30
2024-04-25T07:54:13.759Z,13.30
2024-04-25T07:56:49.841Z,13.30
2024-04-25T07:59:16.869Z,13.60
2024-04-25T08:01:45.606Z,13.60
2024-04-25T08:04:12.579Z,13.60
2024-04-25T08:06:39.658Z,13.40
2024-04-25T08:09:07.585Z,13.50
2024-04-25T08:11:34.567Z,13.50
2024-04-25T08:14:02.196Z,13.70
2024-04-25T08:16:29.766Z,13.70
2024-04-25T08:18:57.168Z,13.80
2024-04-25T08:21:26.393Z,13.80
2024-04-25T08:23:53.533Z,14.00
2024-04-25T08:26:23.899Z,14.00
2024-04-25T08:28:51.428Z,13.90
2024-04-25T08:31:18.386Z,13.90
2024-04-25T08:33:45.622Z,13.80
2024-04-25T08:36:15.630Z,13.80
2024-04-25T08:38:44.868Z,13.80
2024-04-25T08:41:13.007Z,14.10
2024-04-25T08:43:42.645Z,14.00
2024-04-25T08:46:17.896Z,14.10
2024-04-25T08:48:45.597Z,14.30
2024-04-25T08:51:12.971Z,14.10
2024-04-25T08:53:40.623Z,14.00
2024-04-25T08:56:08.846Z,14.20
2024-04-25T08:58:35.960Z,13.90
2024-04-25T09:01:03.424Z,14.20
2024-04-25T09:03:30.636Z,14.20
2024-04-25T09:05:58.012Z,14.40
2024-04-25T09:08:24.977Z,14.30
2024-04-25T09:10:53.482Z,14.40
2024-04-25T09:13:22.772Z,14.30
2024-04-25T09:15:49.809Z,14.40
2024-04-25T09:18:16.948Z,14.60
2024-04-25T09:20:46.096Z,14.30
2024-04-25T09:23:13.500Z,14.30
2024-04-25T09:25:40.448Z,14.20
2024-04-25T09:28:07.977Z,14.20
2024-04-25T09:30:35.721Z,14.30
2024-04-25T09:33:06.215Z,14.30
2024-04-25T09:35:41.906Z,14.10
2024-04-25T09:38:10.293Z,13.70
2024-04-25T09:40:37.423Z,13.30
2024-04-25T09:43:04.903Z,13.30
2024-04-25T09:45:34.581Z,13.20
2024-04-25T09:48:05.168Z,13.20
2024-04-25T09:50:35.559Z,13.00
2024-04-25T09:53:17.932Z,13.00
2024-04-25T09:55:46.236Z,13.20
2024-04-25T09:58:19.295Z,13.20
2024-04-25T10:00:47.714Z,13.40
2024-04-25T10:03:16.077Z,13.60
2024-04-25T10:05:44.185Z,13.90
2024-04-25T10:08:13.735Z,14.10
2024-04-25T10:10:41.275Z,14.30
2024-04-25T10:13:13.844Z,14.70
2024-04-25T10:15:42.867Z,14.90
2024-04-25T10:18:10.016Z,14.80
2024-04-25T10:20:39.374Z,14.80
2024-04-25T10:23:10.726Z,14.50
2024-04-25T10:25:37.807Z,14.20
2024-04-25T10:28:05.821Z,13.90
2024-04-25T10:30:35.657Z,13.90
2024-04-25T10:33:02.998Z,13.80
2024-04-25T10:35:37.939Z,13.80
2024-04-25T10:38:06.647Z,14.00
2024-04-25T10:40:33.835Z,14.10
2024-04-25T10:43:04.654Z,14.30
2024-04-25T10:45:32.869Z,14.50
2024-04-25T10:48:01.586Z,14.70
2024-04-25T10:50:31.244Z,14.80
2024-04-25T10:52:58.358Z,14.90
2024-04-25T10:55:25.496Z,15.00
2024-04-25T10:57:53.265Z,15.00
2024-04-25T11:00:24.639Z,15.10
2024-04-25T11:02:53.429Z,15.30
2024-04-25T11:05:21.037Z,15.60
2024-04-25T11:07:48.391Z,15.70
2024-04-25T11:10:19.104Z,15.70
2024-04-25T11:12:46.471Z,15.80
2024-04-25T11:15:19.888Z,15.40
2024-04-25T11:17:56.702Z,15.30
2024-04-25T11:20:34.777Z,15.20
2024-04-25T11:23:33.198Z,15.10
2024-04-25T11:26:05.813Z,15.00
2024-04-25T11:28:32.920Z,14.90
2024-04-25T11:31:03.008Z,14.90
2024-04-25T11:33:31.435Z,14.80
2024-04-25T11:35:59.538Z,14.80
2024-04-25T11:38:29.993Z,14.70
2024-04-25T11:40:56.931Z,14.90
2024-04-25T11:43:26.742Z,15.00
2024-04-25T11:45:53.759Z,15.00
2024-04-25T11:48:22.924Z,15.00
2024-04-25T11:50:51.970Z,15.30
2024-04-25T11:53:19.000Z,15.30
2024-04-25T11:55:47.413Z,15.50
2024-04-25T11:58:14.750Z,15.60
2024-04-25T12:00:43.748Z,15.60
2024-04-25T12:03:12.625Z,15.60
2024-04-25T12:05:40.398Z,15.40
2024-04-25T12:08:09.301Z,15.40
2024-04-25T12:10:39.703Z,15.50
2024-04-25T12:13:12.215Z,15.50
2024-04-25T12:15:43.018Z,15.60
2024-04-25T12:18:10.186Z,15.50
2024-04-25T12:20:38.080Z,15.30
2024-04-25T12:23:06.630Z,15.50
2024-04-25T12:25:34.432Z,15.30
2024-04-25T12:28:01.449Z,14.90
2024-04-25T12:30:32.722Z,14.90
2024-04-25T12:33:00.492Z,14.80
2024-04-25T12:35:28.664Z,14.80
2024-04-25T12:37:56.225Z,14.90
2024-04-25T12:40:24.275Z,14.90
2024-04-25T12:42:52.276Z,15.00
2024-04-25T12:45:22.044Z,15.20
2024-04-25T12:47:57.754Z,15.20
2024-04-25T12:50:24.806Z,15.30
2024-04-25T12:52:52.999Z,15.20
2024-04-25T12:55:20.437Z,15.00
2024-04-25T12:57:49.773Z,15.00
2024-04-25T13:00:17.869Z,15.00
2024-04-25T13:02:44.919Z,14.90
2024-04-25T13:05:12.283Z,14.50
2024-04-25T13:07:39.307Z,14.70
2024-04-25T13:10:06.627Z,14.60
2024-04-25T13:12:34.655Z,14.60
2024-04-25T13:15:01.681Z,14.60
2024-04-25T13:17:31.551Z,14.90
2024-04-25T13:19:58.586Z,14.90
2024-04-25T13:22:25.580Z,14.80
2024-04-25T13:24:53.810Z,14.80
2024-04-25T13:27:20.933Z,14.40
2024-04-25T13:29:48.023Z,14.40
2024-04-25T13:32:15.348Z,14.40
2024-04-25T13:34:42.921Z,14.30
2024-04-25T13:37:11.844Z,14.20
2024-04-25T13:39:40.871Z,14.10
2024-04-25T13:42:08.760Z,14.10
2024-04-25T13:44:35.810Z,14.20
2024-04-25T13:47:02.827Z,14.20
2024-04-25T13:49:29.803Z,14.10
2024-04-25T13:51:58.605Z,14.30
2024-04-25T13:54:25.593Z,14.30
2024-04-25T13:56:53.844Z,14.20
2024-04-25T13:59:22.412Z,14.20
2024-04-25T14:01:50.857Z,13.90
2024-04-25T14:04:18.485Z,13.80
2024-04-25T14:06:46.559Z,13.80
2024-04-25T14:09:13.716Z,13.80
2024-04-25T14:11:43.978Z,13.70
2024-04-25T14:14:16.813Z,13.60
2024-04-25T14:16:43.803Z,13.50
2024-04-25T14:19:11.339Z,13.40
2024-04-25T14:21:38.332Z,13.40
2024-04-25T14:24:05.380Z,13.30
2024-04-25T14:26:51.385Z,13.30
2024-04-25T14:29:18.801Z,13.40
2024-04-25T14:31:45.877Z,13.60
2024-04-25T14:34:12.902Z,13.30
2024-04-25T14:36:39.853Z,13.40
2024-04-25T14:39:09.200Z,13.40
2024-04-25T14:41:36.302Z,13.40
2024-04-25T14:44:10.366Z,13.50
2024-04-25T14:46:39.074Z,13.60
2024-04-25T14:49:06.096Z,13.50
2024-04-25T14:51:33.188Z,13.50
2024-04-25T14:54:01.249Z,13.50
2024-04-25T14:56:29.243Z,13.60
2024-04-25T14:58:56.255Z,13.60
2024-04-25T15:01:24.403Z,13.60
2024-04-25T15:03:51.566Z,13.50
2024-04-25T15:06:18.689Z,13.60
2024-04-25T15:08:45.703Z,13.40
2024-04-25T15:11:13.743Z,13.20
2024-04-25T15:13:40.981Z,13.10
2024-04-25T15:16:08.126Z,13.00
2024-04-25T15:18:38.494Z,12.90
2024-04-25T15:21:05.649Z,12.80
2024-04-25T15:23:32.634Z,12.30
2024-04-25T15:26:00.639Z,12.10
2024-04-25T15:28:28.377Z,11.70
2024-04-25T15:30:55.461Z,11.40
2024-04-25T15:33:24.098Z,11.30
2024-04-25T15:35:54.640Z,11.10
2024-04-25T15:38:23.565Z,11.00
2024-04-25T15:40:50.667Z,10.90
2024-04-25T15:43:18.970Z,10.80
2024-04-25T15:45:47.409Z,10.80
2024-04-25T15:48:14.893Z,10.70
2024-04-25T15:50:42.092Z,10.70
2024-04-25T15:53:12.711Z,10.70
2024-04-25T15:55:40.046Z,10.60
2024-04-25T15:58:07.094Z,10.50
2024-04-25T16:00:34.245Z,10.50
2024-04-25T16:03:07.406Z,10.50
2024-04-25T16:05:34.561Z,10.40
2024-04-25T16:08:01.752Z,10.40
2024-04-25T16:10:31.127Z,10.30
2024-04-25T16:12:59.293Z,10.40
2024-04-25T16:15:26.387Z,10.40
2024-04-25T16:17:53.495Z,10.30
2024-04-25T16:20:22.489Z,10.40
2024-04-25T16:22:49.478Z,10.40
2024-04-25T16:25:18.459Z,10.60
2024-04-25T16:27:45.825Z,10.40
2024-04-25T16:30:14.084Z,10.60
2024-04-25T16:32:42.239Z,10.60
2024-04-25T16:35:09.220Z,10.50
2024-04-25T16:37:36.294Z,10.70
2024-04-25T16:40:03.318Z,10.60
2024-04-25T16:42:30.421Z,10.60
2024-04-25T16:44:58.085Z,10.80
2024-04-25T16:47:25.875Z,10.80
2024-04-25T16:49:54.191Z,10.60
2024-04-25T16:52:21.193Z,10.80
2024-04-25T16:54:48.417Z,10.70
2024-04-25T16:57:16.486Z,10.60
2024-04-25T16:59:43.794Z,10.70
2024-04-25T17:02:10.849Z,10.70
2024-04-25T17:04:47.525Z,10.70
2024-04-25T17:07:14.894Z,10.70
2024-04-25T17:09:42.652Z,10.70
2024-04-25T17:12:11.943Z,10.70
2024-04-25T17:14:39.006Z,10.60
2024-04-25T17:19:48.868Z,10.60
2024-04-25T17:27:57.038Z,10.60
2024-04-25T17:36:12.946Z,10.50
2024-04-25T17:38:44.368Z,10.20
2024-04-25T17:41:12.522Z,10.30
2024-04-25T17:49:18.140Z,10.10
2024-04-25T17:51:48.492Z,9.80
2024-04-25T17:54:17.394Z,9.80
2024-04-25T17:56:49.075Z,9.80
2024-04-25T17:59:18.552Z,9.80
2024-04-25T18:01:49.708Z,9.80
2024-04-25T18:04:20.811Z,9.70
2024-04-25T18:06:49.101Z,9.70
2024-04-25T18:09:17.565Z,9.70
2024-04-25T18:11:45.827Z,9.80
2024-04-25T18:14:14.179Z,9.70
2024-04-25T18:16:41.733Z,9.60
2024-04-25T18:19:09.314Z,9.50
2024-04-25T18:21:39.825Z,9.40
2024-04-25T18:24:06.984Z,9.40
2024-04-25T18:26:34.115Z,9.40
2024-04-25T18:29:01.159Z,9.20
2024-04-25T18:31:33.896Z,9.20
2024-04-25T18:34:05.485Z,9.20
2024-04-25T18:36:33.457Z,9.00
2024-04-25T18:39:03.122Z,9.00
2024-04-25T18:41:31.217Z,8.90
2024-04-25T18:43:59.317Z,8.90
2024-04-25T21:34:03.636Z,4.50
2024-04-25T21:36:38.277Z,4.40
2024-04-25T21:39:09.026Z,4.40
2024-04-25T21:41:40.462Z,4.40
2024-04-25T21:44:10.720Z,4.40
2024-04-25T21:46:38.264Z,4.40
2024-04-25T21:49:09.042Z,4.30
2024-04-25T21:51:38.885Z,4.20
2024-04-25T21:54:07.322Z,4.30
2024-04-25T21:56:35.936Z,4.20
2024-04-25T21:59:02.903Z,4.40
2024-04-25T22:01:31.641Z,4.20
2024-04-25T22:03:59.778Z,4.20
2024-04-25T22:06:27.152Z,4.20
2024-04-25T22:08:54.207Z,4.20
2024-04-25T22:11:22.006Z,4.10
2024-04-25T22:13:49.946Z,4.10
2024-04-25T22:16:19.434Z,4.10
2024-04-25T22:18:49.982Z,4.00
2024-04-25T22:21:18.131Z,3.90
2024-04-25T22:23:47.760Z,4.00
2024-04-25T22:26:16.002Z,4.00
2024-04-25T22:28:44.785Z,4.00
2024-04-25T22:31:12.838Z,4.00
2024-04-25T22:33:44.087Z,4.00
2024-04-25T22:36:19.443Z,3.90
2024-04-25T22:38:47.075Z,3.90
2024-04-25T22:41:14.376Z,3.80
2024-04-25T22:43:43.996Z,3.80
2024-04-25T22:46:12.442Z,3.70
2024-04-25T22:48:42.773Z,3.70
2024-04-25T22:51:10.538Z,3.70
2024-04-25T22:53:37.556Z,3.70
2024-04-25T22:56:07.106Z,3.80
2024-04-25T22:58:34.888Z,3.80
2024-04-25T23:01:03.826Z,3.60
2024-04-25T23:03:31.927Z,3.60
2024-04-25T23:05:59.294Z,3.70
2024-04-25T23:08:26.595Z,3.60
2024-04-25T23:10:53.697Z,3.70
2024-04-25T23:13:20.690Z,3.60
2024-04-25T23:15:47.771Z,3.60
2024-04-25T23:18:14.946Z,3.70
2024-04-25T23:20:42.507Z,3.60
2024-04-25T23:23:09.582Z,3.50
2024-04-25T23:25:36.533Z,3.50
2024-04-25T23:28:03.583Z,3.60
2024-04-25T23:30:30.801Z,3.70
2024-04-25T23:32:59.077Z,3.60
2024-04-25T23:35:26.214Z,3.50
2024-04-25T23:37:53.328Z,3.40
2024-04-25T23:40:20.462Z,3.40
2024-04-25T23:42:47.476Z,3.60
2024-04-25T23:45:14.448Z,3.50
2024-04-25T23:47:41.481Z,3.40
2024-04-25T23:50:08.587Z,3.40
2024-04-25T23:52:35.721Z,3.40
2024-04-25T23:55:02.717Z,3.40
2024-04-25T23:57:30.198Z,3.30
2024-04-25T23:59:57.141Z,3.30
